Terminal Aerodrome Forecast
Issued by NWS

Home | Current Version | Previous Version | Graphics & Text | Print | Product List | Glossary On
Versions: 1 2 3 4 5 6 7 8 9 10 11 12 13 14 15 16 17 18 19 20 21 22 23 24 25 26 27 28 29 30 31
040
FTUS43 KTOP 192320
TAFFOE
TAF
KFOE 192320Z 2000/2024 15005KT 2SM -DZ BR OVC002
     FM200500 10003KT 1/4SM FG OVC002
     FM201500 13005KT 3SM BR OVC003=

USA.gov is the U.S. government's official web portal to all federal, state and local government web resources and services.